Chicago, Illinois
Traffic Map
Current Weather Conditions
Chicago, Illinois
Few Clouds Smoke
Few Clouds
69°
Feels Like: 69°
Wind Chill: 69° Ceiling: Unl
Heat Index: 69° Visibility: 5mi
Dew Point: 59° Wind: 0mph
Humidity: 70% Direction: ° ()
Pressure: 30.05in Gusts: 0mph
Raw Report DataKMDW 050753Z 00000KT 5SM FU FEW000 21/15 A3005 RMK AO2 SLP167 FU FEW000 T02060150
Traffic Incident Summary
Active as of:
Severity:
Category:
InformationThere was an issue retrieving the traffic information for this location. Please try a different location or try again shortly.
Advertisements
Track Severe Weather on mobile